ACT        NSW        VIC        QLD        SA        WA        TAS        NT        INFO        CALC            by VK5ZD

  Atmospheric Gas Attenuation - ITU Rec 676-11   --------------- db/100km ---------------
Station Date Time Temp RH % AH g/m3 Dew Point Wind Direction Speed kph Gust kph Barometer mB Rainfall Since 9am 24GHz 47GHz 76GHz 122GHz 134GHz 241GHz
Aireys Inlet 16 19:00 16.4 55 7.68 7.3 32 50 1013.1 0 17.5 23.7 35.0 91.7 83.6 287.1
Ararat 16 15:00 16.9 61 8.77 9.5 37 1015.5 0 19.8 25.4 39.0 102.4 96.9 333.6
Avalon 16 19:00 17.9 65 9.92 11.2 32 41 1014 0 22.2 26.8 43.0 113.0 110.3 380.7
Bairnsdale 16 19:00 18.8 49 7.89 7.9 30 48 1010 0.2 17.9 23.3 34.6 90.8 83.4 286.7
Ballarat 16 19:00 13.6 91 10.71 12.2 20 35 1014.2 0 24.1 29.5 48.8 128.4 127.8 441.2
Ben Nevis 16 19:00 11 88 8.81 9.1 32 48 1013.1 0 20.2 27.1 42.1 110.6 104.9 360.9
Benalla 16 09:00 13.8 64 7.63 7.1 6 1012.9 0 17.5 24.3 36.0 94.2 85.8 294.3
Bendigo 16 19:00 19.3 43 7.13 6.4 24 35 1013.5 0 16.2 22.2 31.8 83.3 74.2 254.4
Cape Nelson 16 19:00 15.4 72 9.46 10.4 20 30 1016.4 1 21.3 26.9 42.6 111.9 108.0 372.1
Cape Otway 16 19:00 15.2 69 8.96 9.6 39 50 1014.3 0.4 20.3 26.1 40.6 106.5 101.4 349.3
Casterton 16 19:00 15.9 80 10.83 12.5 20 33 1016.1 0.2 24.2 29.1 48.0 126.2 125.8 434.7
Cerberus 16 19:00 16.2 72 9.93 11.2 20 30 1013.2 0.8 22.3 27.3 43.9 115.4 112.8 389.3
Charlton 16 19:00 21.6 39 7.4 7.1 17 28 1014.4 0 16.7 22.1 31.9 83.5 75.2 258.2
Coldstream 16 19:00 17.3 71 10.46 12 13 22 1013.5 11 23.4 27.9 45.5 119.6 118.3 408.6
Combienbar 16 19:00 14.3 57 7 5.9 19 28 1007.5 0.2 16.2 23.0 33.1 86.7 77.0 263.7
Dartmoor 16 19:00 14.9 97 12.36 14.4 17 26 1017.2 0.2 27.6 32.1 55.4 146.0 149.7 518.0
East Sale Airport 16 19:00 17.4 65 9.63 10.8 39 63 1010.8 0.4 21.6 26.4 41.9 110.2 106.9 368.9
Echuca 16 09:00 16 59 8.04 8.1 26 1014.9 0 18.3 24.5 36.6 96.0 88.7 304.7
Edenhope 16 19:00 16.7 70 9.95 11.2 24 35 1013.1 0 22.3 27.2 43.7 114.9 112.3 387.7
Eildon Fire Tower 16 19:00 13.4 69 8.02 7.8 20 30 1013.1 1.8 18.4 25.1 37.7 98.8 91.3 313.5
Essendon Airport 16 19:00 18 63 9.68 10.9 39 52 1013.8 0.2 21.7 26.4 42.0 110.3 107.0 369.2
Falls Creek 16 19:00 5.3 82 5.69 2.5 19 28 1006 0 13.7 23.3 31.7 82.7 68.6 233.1
Ferny Creek 16 19:00 12.1 96 10.3 11.5 6 15 1012.7 2.2 23.3 29.3 47.8 125.9 124.2 428.6
Frankston (Ballam Park) 16 19:00 16 69 9.4 10.3 9 22 1013.4 0.8 21.2 26.5 41.9 110.0 106.1 365.6
Gabo Island 16 19:00 18.2 53 8.24 8.5 44 57 1008.4 0.2 18.6 23.9 36.1 94.7 88.2 303.4
Geelong Racecourse 16 19:00 18.2 55 8.55 9 32 44 1014.1 0.2 19.3 24.6 37.5 98.4 92.5 318.2
Gelantipy 16 19:00 15.2 53 6.88 5.7 13 22 1007.8 0 15.9 22.7 32.3 84.6 74.7 255.7
Hamilton 16 19:00 15.3 79 10.32 11.7 28 39 1016.1 0.4 23.2 28.4 46.2 121.4 119.7 413.3
Hogan Island 16 19:00 14.8 73 9.25 10 82 96 1007.2 1.4 20.9 26.4 41.6 109.4 105.2 362.4
Hopetoun Airport 16 19:00 23.2 35 7.28 6.9 33 46 1015.2 0 16.4 21.6 30.9 80.9 72.5 248.7
Horsham 16 19:00 19.9 50 8.59 9.2 32 43 1015.8 0 19.3 24.3 37.0 96.9 91.1 313.7
Hunters Hill 16 19:00 13.1 54 6.16 4 17 32 1013.1 0.2 14.4 22.3 30.7 80.2 68.2 232.6
Kanagulk 16 19:00 16.6 72 10.17 11.5 19 33 1016.1 0 22.8 27.7 44.8 117.8 115.7 399.4
Kerang 16 15:00 24.6 27 6.08 4.4 15 1013.1 0 13.8 19.6 26.5 69.0 58.3 199.2
Kilmore Gap 16 19:00 15.1 70 9.03 9.7 22 35 1012.7 0 20.4 26.2 40.8 107.2 102.3 352.5
Kingfish B 16 19:00 17.4 67 9.93 11.3 59 74 1013.1 0 22.2 27.0 43.2 113.7 111.1 383.3
Kyabram 16 19:00 20.2 42 7.34 6.9 15 24 1013.1 0 16.6 22.3 32.2 84.3 75.8 260.0
Lake Eildon 16 09:00 10.8 92 9.1 9.6 6 1013.1 7 20.8 27.6 43.4 114.2 109.2 376.0
Lakes Entrance 16 09:00 16.3 66 9.16 10 46 1013.1 0.8 20.7 26.1 40.8 107.0 102.5 353.2
Latrobe Valley 16 19:00 15.4 75 9.85 11 35 48 1011.3 0.8 22.2 27.4 43.9 115.5 112.7 388.9
Laverton 16 19:00 18.5 60 9.49 10.6 30 46 1013.9 0 21.2 26.0 41.0 107.6 103.9 358.4
Longerenong 16 19:00 19.9 48 8.25 8.6 28 39 1013.1 0 18.6 23.7 35.6 93.3 86.8 298.6
Mallacoota 16 19:00 18.3 54 8.44 8.8 19 33 1008.4 0.8 19.0 24.2 36.8 96.6 90.5 311.6
Mangalore 16 19:00 20.4 36 6.37 4.8 24 33 1012.9 0.2 14.6 20.9 28.8 75.2 64.6 220.8
Maryborough 16 09:00 15.2 67 8.7 9.2 4 1013.1 2 19.7 25.6 39.5 103.7 97.9 337.0
Melbourne (Olympic Park) 16 19:00 18.5 65 10.28 11.8 15 26 1013.9 0 22.9 27.2 44.1 115.9 114.2 394.2
Melbourne Airport 16 19:00 16.3 73 10.13 11.5 35 43 1014.1 0 22.7 27.7 44.7 117.6 115.4 398.4
Mildura 16 19:00 25.8 24 5.78 3.7 17 28 1014.9 0 13.2 19.0 25.2 65.7 54.5 185.9
Moorabbin Airport 16 19:00 16.9 72 10.36 11.8 30 43 1014 0.6 23.2 27.9 45.3 119.2 117.6 406.1
Mortlake 16 19:00 14.4 100 12.36 14.4 19 28 1015.6 0.4 27.6 32.3 55.7 146.7 150.6 520.8
Mount Baw Baw 16 19:00 4.9 100 6.76 4.9 33 57 1013.1 9.8 16.0 25.4 36.5 95.6 84.0 286.8
Mount Buller 16 19:00 3.2 99 5.97 3.1 22 32 1013.1 0.4 14.4 24.6 34.0 88.8 74.8 254.4
Mount Gellibrand 16 19:00 14.2 87 10.62 12.1 39 52 1013.5 1.2 23.9 29.2 48.0 126.3 125.4 433.1
Mount Hotham 16 19:00 3.4 91 5.56 2.1 24 37 1013.1 0 13.5 23.8 32.2 84.0 69.0 234.1
Mount Hotham Airport 16 19:00 11.5 54 5.58 2.5 9 22 1007.8 0.2 13.2 21.6 29.0 75.6 62.2 211.3
Mount Moornapa 16 19:00 15.7 57 7.63 7.2 13 28 1013.1 0.2 17.4 23.8 35.1 92.0 83.8 287.4
Mount Nowa Nowa 16 19:00 16.4 54 7.54 7.1 20 33 1013.1 0 17.2 23.5 34.5 90.3 81.9 281.1
Mount William 16 19:00 8.2 100 8.38 8.2 19 37 1013.1 0 19.4 27.2 41.8 109.7 102.7 352.8
Nhill Aerodrome 16 19:00 20.1 47 8.17 8.4 32 41 1016 0 18.4 23.6 35.3 92.6 85.8 295.2
Omeo 16 19:00 17.7 36 5.43 2.5 13 26 1009.3 0 12.7 20.1 26.4 68.8 56.0 190.2
Orbost 16 19:00 18.9 50 8.1 8.3 24 37 1009.7 1.4 18.3 23.6 35.3 92.7 85.8 295.2
Ouyen 16 09:00 15.4 75 9.85 11.1 11 1013.1 0 22.2 27.5 44.0 115.7 112.9 389.4
Port Fairy 16 19:00 16.1 77 10.55 12.1 30 41 1016.2 0 23.6 28.5 46.7 122.8 121.7 420.1
Portable Vpha (Delwp) 16 18:30 19.1 59 9.67 11.1 15 54 1013.1 0 21.6 26.1 41.3 108.6 105.3 363.5
Portable Vphb (Delwp) 16 18:30 19.1 59 9.67 10.9 13 56 1013.1 0 21.6 26.1 41.3 108.6 105.3 363.5
Portable Vphc (Delwp) 16 19:00 19.1 59 9.67 11.1 4 44 1013.1 0 21.6 26.1 41.3 108.6 105.3 363.5
Portable Vphd (Delwp) 16 18:30 18.9 59 9.56 10.7 19 70 1013.1 0 21.4 25.9 41.0 107.7 104.2 359.5
Portable Vphe (Delwp) 16 18:30 19 59 9.61 10.8 13 59 1013.1 0 21.5 26.0 41.1 108.1 104.7 361.3
Portable Vphf (Delwp) 16 18:30 19 59 9.61 10.8 15 54 1013.1 0 21.5 26.0 41.1 108.1 104.7 361.3
Portland Airport 16 19:00 14 82 9.89 11 20 32 1016.9 3 22.3 28.1 45.2 118.7 115.9 399.6
Pound Creek 16 19:00 16.6 73 10.31 11.7 33 44 1012.1 1.6 23.1 27.8 45.2 118.9 117.2 404.7
Puckapunyal West (Defence) 16 19:00 19 45 7.33 6.8 19 28 1013.1 0 16.7 22.6 32.7 85.4 76.8 263.5
Puckapunyal-Lyon Hill (Defence) 16 19:00 20.3 40 7.03 6.3 19 35 1013.1 0 16.0 21.8 31.1 81.3 72.1 247.2
Redesdale 16 19:00 20.1 45 7.82 7.8 19 30 1013.1 0 17.6 23.0 34.0 88.9 81.5 280.0
Rhyll 16 19:00 16.4 62 8.65 9.1 20 41 1013.1 1 19.6 25.2 38.7 101.6 95.8 329.7
Rutherglen 16 19:00 20.3 36 6.33 4.8 22 32 1013.1 0 14.5 20.8 28.7 74.9 64.2 219.5
Scoresby 16 19:00 15.4 94 12.35 14.4 11 26 1013.1 0.6 27.5 31.8 54.8 144.4 148.1 512.5
Sheoaks 16 19:00 15 74 9.49 10.4 20 33 1014 0 21.4 27.0 42.8 112.5 108.7 374.7
Shepparton 16 19:00 22.1 35 6.83 5.9 19 30 1013.2 0 15.5 21.1 29.8 77.7 68.3 234.0
Stawell 16 19:00 17.2 60 8.79 9.4 19 32 1015.1 0 19.8 25.3 38.9 102.2 96.8 333.2
Strathbogie 16 09:00 10.7 84 8.25 8.1 4 1013.1 3 19.0 26.2 39.9 104.8 97.6 335.4
Swan Hill 16 19:00 24.9 26 5.95 4.1 26 39 1013.7 0 13.6 19.4 26.0 67.7 56.8 193.9
Tatura 16 19:00 20.7 40 7.2 6.6 22 32 1013.1 0 16.3 22.0 31.5 82.5 73.7 252.8
Viewbank 16 19:00 16.9 76 10.93 12.6 19 32 1013.6 0.2 24.4 28.8 47.6 125.4 125.3 433.1
Walpeup 16 19:00 24.7 30 6.79 6 22 37 1013.1 0 15.3 20.5 28.7 75.0 65.7 225.3
Wangaratta 16 18:59 19.7 36 6.11 4.2 22 26 1012.8 0 14.1 20.7 28.2 73.4 62.2 212.4
Warracknabeal Airport 16 19:00 21 43 7.88 8 35 46 1015.3 0 17.7 22.9 33.9 88.7 81.4 279.9
Warragul (Nilma North) 16 19:00 14.5 88 10.95 12.5 24 39 1012.1 2 24.6 29.6 49.1 129.4 129.5 447.2
Warrnambool 16 19:00 15.2 85 11.03 12.7 24 39 1016 0.8 24.7 29.6 49.2 129.6 129.8 448.5
Westmere 16 19:00 13.9 99 11.87 13.7 24 33 1015.4 1.4 26.6 31.6 53.8 141.7 144.2 498.7
Wilsons Promontory 16 19:00 15.6 69 9.18 9.9 67 95 1006.8 2.4 20.7 26.1 40.9 107.5 103.2 355.4
Yanakie 16 19:00 16.8 70 10.01 11.3 39 59 1010.6 0.8 22.5 27.2 43.8 115.1 112.8 389.2
Yarram Airport 16 19:00 16 75 10.22 11.6 33 52 1010.3 1.6 22.9 27.8 45.1 118.6 116.8 403.0
Yarrawonga 16 19:00 20.8 36 6.52 5.2 22 30 1012.7 0 14.9 21.0 29.2 76.1 65.9 225.5

Last Refresh: 16-Jan-2021 18:36:29

The information presented on this site is sourced from the Bureau of Meteorology.  Copyright in all material sourced from the Bureau of Meteorology resides with the Commonwealth of Australia.